Time;durP1;ratioP1;P1;durP2;ratioP2;P2;SDS_P1;SDS_P2;PMS_P1;PMS_P2;Temp;Humidity;BMP_temperature;BMP_pressure;BME280_temperature;BME280_humidity;BME280_pressure;Samples;Min_cycle;Max_cycle;Signal;HPM_P1;HPM_P2
2022/10/14 00:00:40;;;;;;;4.55;4.15;;;18.00;98.80;;;;;;5030589;28;20176;-71
2022/10/14 00:03:05;;;;;;;4.75;3.95;;;18.00;98.90;;;;;;5046849;28;20176;-71
2022/10/14 00:05:31;;;;;;;5.40;4.40;;;18.00;98.70;;;;;;5013734;28;20194;-70
2022/10/14 00:07:57;;;;;;;7.38;4.38;;;18.00;98.90;;;;;;5013965;28;20212;-71
2022/10/14 00:10:23;;;;;;;4.70;4.18;;;17.90;98.70;;;;;;5013311;28;20307;-72
2022/10/14 00:12:49;;;;;;;4.95;4.28;;;18.00;98.80;;;;;;5022819;28;20196;-71
2022/10/14 00:15:16;;;;;;;5.10;4.43;;;18.00;98.80;;;;;;4995252;28;20188;-71
2022/10/14 00:17:42;;;;;;;6.28;4.20;;;18.00;98.80;;;;;;5010222;28;20213;-71
2022/10/14 00:20:08;;;;;;;5.63;4.60;;;18.00;98.70;;;;;;5026628;28;20316;-71
2022/10/14 00:22:34;;;;;;;4.40;3.97;;;18.00;98.80;;;;;;4995244;28;20189;-71
2022/10/14 00:25:00;;;;;;;4.57;3.92;;;18.00;98.70;;;;;;5005014;28;20215;-70
2022/10/14 00:27:26;;;;;;;4.80;4.30;;;18.00;98.80;;;;;;5029744;28;20741;-71
2022/10/14 00:29:51;;;;;;;5.22;3.83;;;18.00;98.70;;;;;;5030086;28;20215;-71
2022/10/14 00:32:18;;;;;;;4.43;3.88;;;18.00;98.70;;;;;;5014338;28;20176;-70
2022/10/14 00:34:43;;;;;;;4.40;3.97;;;17.90;98.60;;;;;;5029607;28;20237;-71
2022/10/14 00:37:09;;;;;;;5.30;3.83;;;18.00;98.60;;;;;;5013358;28;20581;-71
2022/10/14 00:39:35;;;;;;;4.28;3.83;;;18.00;98.70;;;;;;5013134;28;20199;-71
2022/10/14 00:42:01;;;;;;;4.00;3.70;;;18.00;98.70;;;;;;5012902;28;20187;-70
2022/10/14 00:44:26;;;;;;;5.35;4.03;;;18.00;98.60;;;;;;5013162;28;20216;-71
2022/10/14 00:46:54;;;;;;;4.55;4.15;;;18.00;98.70;;;;;;5029667;28;20208;-71
2022/10/14 00:49:30;;;;;;;4.80;4.30;;;17.90;98.60;;;;;;5013149;28;20667;-71
2022/10/14 00:52:17;;;;;;;6.82;4.20;;;18.00;98.70;;;;;;5013831;28;20164;-71
2022/10/14 00:55:02;;;;;;;3.58;3.28;;;17.90;98.70;;;;;;5029339;28;20291;-70
2022/10/14 00:57:29;;;;;;;4.03;3.63;;;17.90;98.60;;;;;;5046017;28;20219;-70
2022/10/14 01:00:06;;;;;;;4.50;4.10;;;18.00;98.70;;;;;;5013002;28;20199;-71
2022/10/14 01:02:32;;;;;;;5.03;4.00;;;18.00;98.70;;;;;;5013777;28;20192;-71
2022/10/14 01:05:00;;;;;;;4.00;3.60;;;18.00;98.60;;;;;;5029380;28;20221;-71
2022/10/14 01:07:37;;;;;;;6.22;4.47;;;18.00;98.60;;;;;;4996301;28;20207;-71
2022/10/14 01:10:38;;;;;;;4.18;3.78;;;18.00;98.60;;;;;;5046000;28;20195;-71
2022/10/14 01:13:32;;;;;;;4.03;3.60;;;18.00;98.60;;;;;;5012399;28;20176;-71
2022/10/14 01:16:32;;;;;;;3.80;3.50;;;18.00;98.70;;;;;;4996556;28;20290;-70
2022/10/14 01:19:26;;;;;;;4.45;4.05;;;18.00;98.70;;;;;;5045899;28;20208;-71
2022/10/14 01:22:03;;;;;;;4.20;3.83;;;17.90;98.60;;;;;;5012719;28;20579;-70
2022/10/14 01:25:02;;;;;;;3.97;3.40;;;18.00;98.70;;;;;;5011187;28;20211;-71
2022/10/14 01:28:06;;;;;;;4.43;4.03;;;17.90;98.70;;;;;;5013457;28;20293;-71
2022/10/14 01:30:47;;;;;;;4.32;3.92;;;18.00;98.70;;;;;;5028631;28;20287;-71
2022/10/14 01:33:42;;;;;;;4.25;3.67;;;18.00;98.70;;;;;;5028709;28;20180;-70
2022/10/14 01:36:24;;;;;;;4.72;3.78;;;18.00;98.70;;;;;;5028880;28;20172;-71
2022/10/14 01:38:59;;;;;;;4.22;3.80;;;18.00;98.80;;;;;;5012147;28;20302;-71
2022/10/14 01:41:34;;;;;;;4.55;3.45;;;17.90;98.80;;;;;;5012497;28;20180;-70
2022/10/14 01:44:10;;;;;;;4.05;3.47;;;17.90;98.70;;;;;;5044854;28;20207;-71
2022/10/14 01:46:44;;;;;;;4.47;3.67;;;18.00;98.80;;;;;;5011907;28;20183;-71
2022/10/14 01:49:20;;;;;;;4.25;3.70;;;18.00;98.70;;;;;;4995777;28;20203;-71
2022/10/14 01:51:53;;;;;;;4.28;3.88;;;18.00;98.60;;;;;;5012077;28;20180;-70
2022/10/14 01:54:33;;;;;;;4.00;3.60;;;17.90;98.60;;;;;;5028058;28;20207;-71
2022/10/14 01:57:16;;;;;;;5.30;3.63;;;17.90;98.60;;;;;;5044681;28;20299;-71
2022/10/14 01:59:44;;;;;;;4.82;3.65;;;18.00;98.80;;;;;;5028071;28;20192;-71
2022/10/14 02:02:12;;;;;;;4.22;3.83;;;18.00;98.70;;;;;;5044880;28;20192;-71
2022/10/14 02:04:40;;;;;;;3.70;3.40;;;18.00;98.70;;;;;;5011903;28;20250;-71
2022/10/14 02:07:30;;;;;;;4.57;3.92;;;18.00;98.70;;;;;;5044290;28;20212;-70
2022/10/14 02:10:37;;;;;;;3.92;3.22;;;17.90;98.70;;;;;;5011547;28;20691;-71
2022/10/14 02:13:34;;;;;;;4.35;3.72;;;18.00;98.60;;;;;;5028265;28;20190;-71
2022/10/14 02:16:22;;;;;;;3.40;3.10;;;17.90;98.70;;;;;;5024695;28;20208;-71
2022/10/14 02:18:59;;;;;;;3.85;3.45;;;18.00;98.70;;;;;;5027864;28;20207;-71
2022/10/14 02:22:03;;;;;;;4.00;3.63;;;18.00;98.80;;;;;;5028140;28;20191;-71
2022/10/14 02:24:37;;;;;;;3.28;2.97;;;18.00;98.60;;;;;;5007724;28;20380;-71
2022/10/14 02:27:09;;;;;;;3.83;3.45;;;18.00;98.60;;;;;;5012385;28;20223;-71
2022/10/14 02:29:40;;;;;;;3.78;3.45;;;18.00;98.70;;;;;;5011654;28;20179;-71
2022/10/14 02:32:08;;;;;;;3.58;3.28;;;17.90;98.60;;;;;;5044154;28;20226;-71
2022/10/14 02:34:36;;;;;;;3.63;3.33;;;17.90;98.60;;;;;;5027605;28;20267;-71
2022/10/14 02:37:03;;;;;;;3.47;3.15;;;18.00;98.60;;;;;;5044150;28;20200;-70
2022/10/14 02:39:37;;;;;;;3.33;3.03;;;17.90;98.60;;;;;;5044747;28;20659;-71
2022/10/14 02:42:05;;;;;;;3.30;3.00;;;18.00;98.70;;;;;;5028073;28;20180;-71
2022/10/14 02:44:33;;;;;;;3.88;3.22;;;18.00;98.80;;;;;;5011273;28;20208;-70
2022/10/14 02:46:59;;;;;;;5.93;3.40;;;17.90;98.80;;;;;;5010589;28;20651;-71
2022/10/14 02:49:27;;;;;;;4.30;3.40;;;18.00;98.70;;;;;;5011257;28;20186;-71
2022/10/14 02:51:53;;;;;;;3.65;3.35;;;17.90;98.70;;;;;;5028046;28;20180;-71
2022/10/14 02:54:19;;;;;;;3.80;3.42;;;17.90;98.60;;;;;;5011220;28;20184;-71
2022/10/14 02:56:45;;;;;;;3.50;2.92;;;17.90;98.70;;;;;;5044027;28;20184;-70
2022/10/14 02:59:11;;;;;;;3.90;3.33;;;17.90;98.60;;;;;;5011149;28;20199;-71
2022/10/14 03:01:37;;;;;;;3.63;3.20;;;17.90;98.60;;;;;;5044123;28;20206;-70
2022/10/14 03:04:04;;;;;;;3.92;3.58;;;17.90;98.60;;;;;;5027120;28;20216;-71
2022/10/14 03:06:30;;;;;;;4.55;3.35;;;17.90;98.60;;;;;;5010813;28;20188;-70
2022/10/14 03:08:58;;;;;;;3.63;3.17;;;17.90;98.60;;;;;;5027173;28;20184;-71
2022/10/14 03:11:24;;;;;;;4.00;3.30;;;17.90;98.60;;;;;;5011031;28;20180;-70
2022/10/14 03:13:54;;;;;;;3.67;3.38;;;17.90;98.70;;;;;;5026644;28;20191;-71
2022/10/14 03:16:20;;;;;;;3.08;2.88;;;17.90;98.70;;;;;;5027565;28;20184;-71
2022/10/14 03:18:47;;;;;;;3.65;3.30;;;17.90;98.70;;;;;;5043969;28;20216;-71
2022/10/14 03:21:20;;;;;;;2.95;2.75;;;18.00;98.60;;;;;;5026378;28;20180;-70
2022/10/14 03:23:47;;;;;;;3.50;3.20;;;17.90;98.60;;;;;;5043590;28;20216;-70
2022/10/14 03:26:13;;;;;;;3.67;3.00;;;17.90;98.60;;;;;;5010872;28;20711;-71
2022/10/14 03:28:41;;;;;;;4.00;3.42;;;17.90;98.70;;;;;;5026783;28;20204;-71
2022/10/14 03:31:27;;;;;;;3.47;3.17;;;17.90;98.70;;;;;;5010524;28;20668;-71
2022/10/14 03:34:06;;;;;;;2.70;2.50;;;17.90;98.60;;;;;;5025149;28;20200;-71
2022/10/14 03:36:34;;;;;;;3.33;3.03;;;17.90;98.60;;;;;;5010707;28;20271;-71
2022/10/14 03:39:00;;;;;;;4.13;2.92;;;17.90;98.60;;;;;;5010800;28;20279;-71
2022/10/14 03:41:41;;;;;;;3.22;2.92;;;17.90;98.50;;;;;;5044198;28;20176;-71
2022/10/14 03:44:10;;;;;;;3.38;3.08;;;17.90;98.50;;;;;;5010625;28;20232;-71
2022/10/14 03:46:38;;;;;;;3.60;3.03;;;17.90;98.60;;;;;;5027340;28;20250;-71
2022/10/14 03:49:04;;;;;;;3.13;2.80;;;17.90;98.50;;;;;;5015395;28;20176;-71
2022/10/14 03:51:31;;;;;;;2.95;2.72;;;17.90;98.60;;;;;;5014084;28;20180;-70
2022/10/14 03:54:09;;;;;;;3.63;3.33;;;17.90;98.50;;;;;;5028865;28;20179;-72
2022/10/14 03:56:35;;;;;;;3.67;3.25;;;17.90;98.60;;;;;;5015524;28;20184;-71
2022/10/14 03:59:01;;;;;;;2.72;2.53;;;17.90;98.70;;;;;;5030256;28;20569;-70
2022/10/14 04:01:27;;;;;;;3.58;3.00;;;17.90;98.50;;;;;;5014239;28;20179;-71
2022/10/14 04:04:09;;;;;;;3.05;2.80;;;17.90;98.70;;;;;;5032630;28;20249;-71
2022/10/14 04:06:36;;;;;;;3.20;2.90;;;17.90;98.60;;;;;;5038744;28;20189;-71
2022/10/14 04:09:04;;;;;;;3.20;3.00;;;17.90;98.60;;;;;;4994465;28;20181;-71
2022/10/14 04:11:34;;;;;;;3.65;2.60;;;17.90;98.50;;;;;;4994198;28;20184;-71
2022/10/14 04:14:04;;;;;;;3.22;2.92;;;17.90;98.60;;;;;;4993950;28;20177;-71
2022/10/14 04:16:34;;;;;;;3.15;2.95;;;17.90;98.50;;;;;;4993922;28;20200;-70
2022/10/14 04:19:05;;;;;;;3.55;2.85;;;17.90;98.50;;;;;;4994059;28;20181;-71
2022/10/14 04:21:32;;;;;;;3.33;3.03;;;17.90;98.50;;;;;;4994087;28;20235;-72
2022/10/14 04:23:58;;;;;;;3.00;2.70;;;17.90;98.50;;;;;;4993947;28;20299;-72
2022/10/14 04:26:36;;;;;;;2.97;2.78;;;17.90;98.50;;;;;;4994086;28;20180;-72
2022/10/14 04:29:03;;;;;;;3.08;2.72;;;17.90;98.50;;;;;;5009979;28;20302;-72
2022/10/14 04:31:37;;;;;;;3.05;2.63;;;17.90;98.60;;;;;;4995449;28;20263;-72
2022/10/14 04:34:03;;;;;;;3.08;2.40;;;17.90;98.50;;;;;;4993607;28;20234;-72
2022/10/14 04:36:34;;;;;;;3.38;3.03;;;17.90;98.60;;;;;;5009163;28;20181;-72
2022/10/14 04:39:02;;;;;;;3.20;2.90;;;17.90;98.60;;;;;;4993584;28;20185;-72
2022/10/14 04:41:28;;;;;;;3.55;3.00;;;17.90;98.60;;;;;;4993664;28;20187;-72
2022/10/14 04:43:56;;;;;;;2.83;2.63;;;17.90;98.60;;;;;;5009579;28;20216;-71
2022/10/14 04:46:37;;;;;;;3.03;2.72;;;17.90;98.50;;;;;;4993378;28;20185;-72
2022/10/14 04:49:04;;;;;;;3.20;2.90;;;17.90;98.50;;;;;;5009841;28;20181;-72
2022/10/14 04:51:35;;;;;;;2.92;2.72;;;17.90;98.50;;;;;;5026287;28;20185;-72
2022/10/14 04:54:14;;;;;;;3.60;3.30;;;17.90;98.50;;;;;;5007872;28;20181;-72
2022/10/14 04:57:00;;;;;;;3.13;2.88;;;17.90;98.50;;;;;;4994041;28;20300;-72
2022/10/14 04:59:27;;;;;;;2.80;2.60;;;17.90;98.50;;;;;;4993246;28;20178;-73
2022/10/14 05:02:07;;;;;;;2.90;2.70;;;17.90;98.60;;;;;;4993183;28;20193;-72
2022/10/14 05:04:40;;;;;;;2.65;2.42;;;17.90;98.60;;;;;;4992875;28;20224;-70
2022/10/14 05:07:07;;;;;;;3.40;3.10;;;17.90;98.60;;;;;;4993100;28;20201;-72
2022/10/14 05:09:33;;;;;;;3.17;2.88;;;17.90;98.60;;;;;;4993043;28;20196;-72
2022/10/14 05:12:00;;;;;;;2.92;2.60;;;17.90;98.60;;;;;;5009452;28;20252;-71
2022/10/14 05:14:36;;;;;;;3.00;2.80;;;17.90;98.60;;;;;;4992838;28;20263;-71
2022/10/14 05:17:14;;;;;;;3.10;2.80;;;17.90;98.50;;;;;;4992956;28;20228;-72
2022/10/14 05:19:39;;;;;;;2.80;2.60;;;17.90;98.50;;;;;;4992708;28;20271;-72
2022/10/14 05:22:06;;;;;;;3.30;3.00;;;17.90;98.60;;;;;;4992502;28;20196;-72
2022/10/14 05:24:37;;;;;;;3.45;3.15;;;17.90;98.50;;;;;;4994804;28;20265;-72
2022/10/14 05:27:03;;;;;;;3.10;2.80;;;17.90;98.50;;;;;;5026953;28;20212;-72
2022/10/14 05:29:30;;;;;;;3.13;2.83;;;17.90;98.50;;;;;;5012257;28;20191;-71
2022/10/14 05:31:55;;;;;;;3.10;2.80;;;17.90;98.60;;;;;;5009954;28;20184;-72
2022/10/14 05:34:37;;;;;;;2.95;2.72;;;17.90;98.50;;;;;;5028592;28;20223;-72
2022/10/14 05:37:07;;;;;;;3.28;2.90;;;17.90;98.60;;;;;;5028654;28;20230;-73
2022/10/14 05:39:40;;;;;;;3.00;2.70;;;17.90;98.60;;;;;;5011486;28;20188;-72
2022/10/14 05:42:07;;;;;;;2.97;2.60;;;17.80;98.60;;;;;;5027965;28;20180;-73
2022/10/14 05:44:33;;;;;;;3.30;3.00;;;17.90;98.60;;;;;;5011436;28;20244;-73
2022/10/14 05:46:59;;;;;;;3.22;2.92;;;17.90;98.60;;;;;;5011616;28;20710;-72
2022/10/14 05:49:26;;;;;;;3.08;2.88;;;17.80;98.50;;;;;;5011655;28;20192;-73
2022/10/14 05:51:55;;;;;;;3.63;3.33;;;17.90;98.70;;;;;;5011436;28;20191;-73
2022/10/14 05:54:22;;;;;;;4.28;3.20;;;17.90;98.60;;;;;;5011287;28;20671;-73
2022/10/14 05:56:51;;;;;;;2.90;2.70;;;17.90;98.60;;;;;;5011358;28;20204;-73
2022/10/14 05:59:18;;;;;;;2.90;2.70;;;17.90;98.60;;;;;;5011113;28;20187;-72
2022/10/14 06:01:44;;;;;;;3.45;3.00;;;17.90;98.60;;;;;;4995140;28;20238;-72
2022/10/14 06:04:19;;;;;;;2.80;2.60;;;17.80;98.50;;;;;;4994773;28;20208;-72
2022/10/14 06:06:46;;;;;;;2.65;2.45;;;17.90;98.60;;;;;;5027542;28;20183;-72
2022/10/14 06:09:13;;;;;;;2.88;2.50;;;17.90;98.50;;;;;;4995111;28;20198;-73
2022/10/14 06:11:39;;;;;;;3.10;2.60;;;17.90;98.50;;;;;;4994401;28;20267;-73
2022/10/14 06:14:05;;;;;;;4.63;2.92;;;17.90;98.50;;;;;;5011079;28;20184;-73
2022/10/14 06:16:31;;;;;;;3.72;2.78;;;17.90;98.70;;;;;;5011070;28;20184;-73
2022/10/14 06:19:01;;;;;;;3.28;2.95;;;17.90;98.60;;;;;;5011181;28;20690;-73
2022/10/14 06:21:27;;;;;;;3.90;3.20;;;17.90;98.70;;;;;;5011287;28;20565;-73
2022/10/14 06:23:53;;;;;;;3.65;3.30;;;17.90;98.60;;;;;;5010864;28;20212;-73
2022/10/14 06:26:19;;;;;;;3.03;2.60;;;17.90;98.70;;;;;;4994836;28;20233;-73
2022/10/14 06:28:45;;;;;;;3.20;2.90;;;17.90;98.80;;;;;;5027711;28;20594;-73
2022/10/14 06:31:11;;;;;;;4.18;3.25;;;17.90;98.80;;;;;;5011001;28;20180;-73
2022/10/14 06:33:37;;;;;;;3.92;3.08;;;17.90;98.60;;;;;;4994102;28;20676;-73
2022/10/14 06:36:05;;;;;;;3.50;3.20;;;17.90;98.60;;;;;;5010953;28;20289;-73
2022/10/14 06:38:32;;;;;;;3.40;3.10;;;17.90;98.70;;;;;;5010952;28;20204;-73
2022/10/14 06:40:57;;;;;;;3.42;2.85;;;17.90;98.60;;;;;;5010856;28;20180;-73
2022/10/14 06:43:23;;;;;;;3.85;3.45;;;17.90;98.60;;;;;;5011837;28;20182;-73
2022/10/14 06:45:49;;;;;;;3.15;2.85;;;17.90;98.60;;;;;;5010920;28;20180;-73
2022/10/14 06:48:15;;;;;;;3.72;3.33;;;17.90;98.70;;;;;;5010900;28;20250;-73
2022/10/14 06:50:41;;;;;;;3.05;2.78;;;17.90;98.60;;;;;;5012113;28;20180;-73
2022/10/14 06:53:07;;;;;;;3.05;2.75;;;17.90;98.60;;;;;;5010787;28;20648;-73
2022/10/14 06:55:33;;;;;;;3.83;2.90;;;17.90;98.70;;;;;;5010998;28;20192;-73
2022/10/14 06:57:59;;;;;;;3.10;2.80;;;17.90;98.60;;;;;;5010664;28;20211;-73
2022/10/14 07:00:25;;;;;;;3.20;2.80;;;17.90;98.60;;;;;;5010966;28;20200;-73
2022/10/14 07:02:51;;;;;;;3.33;2.88;;;17.90;98.60;;;;;;5010668;28;20188;-73
2022/10/14 07:05:17;;;;;;;3.42;3.00;;;17.90;98.70;;;;;;5010567;28;20242;-73
2022/10/14 07:07:42;;;;;;;3.25;2.83;;;17.90;98.70;;;;;;5010506;28;20216;-73
2022/10/14 07:10:08;;;;;;;3.53;3.22;;;17.90;98.80;;;;;;5010501;28;20210;-73
2022/10/14 07:12:34;;;;;;;3.58;3.28;;;17.90;98.70;;;;;;5010788;28;20267;-72
2022/10/14 07:15:00;;;;;;;3.28;2.75;;;17.90;98.80;;;;;;5010646;28;20251;-73
2022/10/14 07:17:26;;;;;;;3.67;3.05;;;17.90;98.80;;;;;;5010127;28;20227;-73
2022/10/14 07:19:52;;;;;;;3.95;3.28;;;17.90;98.70;;;;;;5027211;28;20226;-73
2022/10/14 07:22:18;;;;;;;3.10;2.80;;;17.90;98.80;;;;;;4995182;28;20228;-73
2022/10/14 07:24:44;;;;;;;3.72;3.38;;;17.90;98.80;;;;;;5014073;28;20254;-73
2022/10/14 07:27:10;;;;;;;3.08;2.78;;;17.90;98.80;;;;;;5030512;28;20220;-73
2022/10/14 07:29:36;;;;;;;4.28;3.00;;;17.90;98.80;;;;;;5014314;28;20180;-73
2022/10/14 07:32:02;;;;;;;3.72;3.33;;;17.90;98.90;;;;;;5014333;28;20211;-73
2022/10/14 07:34:28;;;;;;;3.42;3.08;;;18.00;98.90;;;;;;5013887;28;20192;-73
2022/10/14 07:36:54;;;;;;;3.70;2.88;;;17.90;98.80;;;;;;5030352;28;20220;-73
2022/10/14 07:39:20;;;;;;;3.15;2.85;;;17.90;98.80;;;;;;5047010;28;20184;-73
2022/10/14 07:41:45;;;;;;;3.50;3.20;;;17.90;98.90;;;;;;5013000;28;20290;-73
2022/10/14 07:44:12;;;;;;;3.85;3.03;;;17.90;98.90;;;;;;5030180;28;20215;-73
2022/10/14 07:46:42;;;;;;;3.20;2.90;;;17.90;99.00;;;;;;5014958;28;20684;-73
2022/10/14 07:49:18;;;;;;;5.07;3.00;;;18.00;99.00;;;;;;5013885;28;20188;-73
2022/10/14 07:51:46;;;;;;;3.33;2.83;;;17.90;98.90;;;;;;5013966;28;20176;-73
2022/10/14 07:54:25;;;;;;;3.85;2.97;;;18.00;98.90;;;;;;5029903;28;20187;-73
2022/10/14 07:56:51;;;;;;;4.25;2.80;;;18.00;98.80;;;;;;5030201;28;20303;-73
2022/10/14 07:59:19;;;;;;;3.60;2.80;;;17.90;98.80;;;;;;5013841;28;20315;-73
2022/10/14 08:01:49;;;;;;;2.70;2.47;;;17.90;98.90;;;;;;5013596;28;20659;-73
2022/10/14 08:04:16;;;;;;;3.28;2.97;;;18.00;98.90;;;;;;5013351;28;20224;-73
2022/10/14 08:06:42;;;;;;;3.45;3.10;;;18.00;98.90;;;;;;5013718;28;20187;-73
2022/10/14 08:09:10;;;;;;;3.40;2.72;;;18.00;99.00;;;;;;5029632;28;20180;-73
2022/10/14 08:11:36;;;;;;;3.05;2.80;;;17.90;99.00;;;;;;5014645;28;20208;-73
2022/10/14 08:14:03;;;;;;;3.00;2.70;;;18.00;99.00;;;;;;4996648;28;20220;-73
2022/10/14 08:16:33;;;;;;;3.35;2.85;;;18.00;99.00;;;;;;4996964;28;20223;-73
2022/10/14 08:19:04;;;;;;;3.53;2.80;;;18.00;99.00;;;;;;5029985;28;20188;-73
2022/10/14 08:21:30;;;;;;;3.47;3.08;;;18.00;99.10;;;;;;5013412;28;20199;-73
2022/10/14 08:23:56;;;;;;;4.25;2.88;;;18.00;99.00;;;;;;5029028;28;20196;-73
2022/10/14 08:26:37;;;;;;;3.88;3.05;;;17.90;99.00;;;;;;5013241;28;20180;-73
2022/10/14 08:29:09;;;;;;;3.38;2.97;;;18.00;99.00;;;;;;5054630;22;20317;-67
2022/10/14 08:31:35;;;;;;;3.25;2.95;;;18.00;99.00;;;;;;5032875;28;20244;-67
2022/10/14 08:34:01;;;;;;;3.00;2.70;;;18.00;99.00;;;;;;5015786;28;20195;-67
2022/10/14 08:36:27;;;;;;;3.05;2.80;;;18.00;99.00;;;;;;5032949;28;20198;-69
2022/10/14 08:38:54;;;;;;;2.75;2.50;;;18.00;98.90;;;;;;5029417;28;20200;-67
2022/10/14 08:42:07;;;;;;;3.05;2.70;;;18.00;99.10;;;;;;5012916;28;20227;-67
2022/10/14 08:44:52;;;;;;;3.45;2.70;;;18.00;99.10;;;;;;4991798;28;20311;-68
2022/10/14 08:47:29;;;;;;;3.30;3.00;;;18.00;99.00;;;;;;5012066;28;20203;-68
2022/10/14 08:50:13;;;;;;;3.08;2.78;;;17.90;99.00;;;;;;5012759;28;20190;-67
2022/10/14 08:53:01;;;;;;;2.88;2.65;;;17.90;99.00;;;;;;5012518;28;20184;-67
2022/10/14 08:55:39;;;;;;;3.88;3.00;;;18.00;99.00;;;;;;5012740;28;20191;-67
2022/10/14 08:58:17;;;;;;;3.05;2.80;;;18.00;99.00;;;;;;5012609;28;20204;-67
2022/10/14 09:00:49;;;;;;;2.95;2.65;;;18.00;99.00;;;;;;5013610;28;20238;-67
2022/10/14 09:03:32;;;;;;;3.75;2.88;;;18.00;99.00;;;;;;5012228;28;20203;-67
2022/10/14 09:06:21;;;;;;;3.22;2.78;;;18.00;99.00;;;;;;5012498;28;20196;-67
2022/10/14 09:08:51;;;;;;;3.03;2.60;;;18.00;98.90;;;;;;4996113;28;20232;-68
2022/10/14 09:11:20;;;;;;;3.55;2.88;;;18.00;98.90;;;;;;4995993;28;20192;-67
2022/10/14 09:13:51;;;;;;;3.33;3.03;;;18.00;99.00;;;;;;5012043;28;20184;-67
2022/10/14 09:16:31;;;;;;;3.50;2.70;;;18.00;98.90;;;;;;5012270;28;20207;-67
2022/10/14 09:19:01;;;;;;;3.50;3.20;;;18.00;99.00;;;;;;5011765;28;20231;-67
2022/10/14 09:21:47;;;;;;;3.70;2.47;;;18.00;99.00;;;;;;4995731;28;20192;-67
2022/10/14 09:24:34;;;;;;;3.28;2.90;;;18.00;99.20;;;;;;5011853;28;20210;-67
2022/10/14 09:27:20;;;;;;;3.90;2.88;;;18.00;99.00;;;;;;4995590;28;20180;-67
2022/10/14 09:29:56;;;;;;;3.47;3.17;;;18.00;99.20;;;;;;5012032;28;20184;-67
2022/10/14 09:32:31;;;;;;;3.20;2.90;;;18.00;99.10;;;;;;4995633;28;20187;-67
2022/10/14 09:34:59;;;;;;;3.25;2.95;;;18.00;99.20;;;;;;5011811;28;20211;-67
2022/10/14 09:37:31;;;;;;;2.58;2.38;;;18.00;99.30;;;;;;4995199;28;20212;-67
2022/10/14 09:40:08;;;;;;;3.33;3.03;;;18.00;99.30;;;;;;4995557;28;20195;-67
2022/10/14 09:42:57;;;;;;;3.20;2.90;;;18.00;99.20;;;;;;5011844;28;20199;-67
2022/10/14 09:45:26;;;;;;;2.90;2.70;;;18.10;99.30;;;;;;5010913;28;20216;-67
2022/10/14 09:48:06;;;;;;;2.88;2.58;;;18.10;99.30;;;;;;5012603;28;20204;-67
2022/10/14 09:50:42;;;;;;;4.80;2.90;;;18.10;99.30;;;;;;4995417;28;20183;-67
2022/10/14 09:53:27;;;;;;;3.22;2.92;;;18.10;99.20;;;;;;5011440;28;20179;-67
2022/10/14 09:56:04;;;;;;;3.28;2.97;;;18.10;99.50;;;;;;5012657;28;20194;-67
2022/10/14 09:58:55;;;;;;;3.10;2.78;;;18.00;99.40;;;;;;4994999;28;20211;-67
2022/10/14 10:01:24;;;;;;;3.13;2.80;;;18.10;99.40;;;;;;4995150;28;20283;-67
2022/10/14 10:03:53;;;;;;;3.53;2.83;;;18.10;99.50;;;;;;5011128;28;20212;-67
2022/10/14 10:06:24;;;;;;;2.88;2.45;;;18.10;99.50;;;;;;5011288;28;20187;-67
2022/10/14 10:08:53;;;;;;;2.78;2.58;;;18.10;99.60;;;;;;4992074;28;20235;-67
2022/10/14 10:11:36;;;;;;;2.78;2.53;;;18.10;99.50;;;;;;5027853;28;20188;-68
2022/10/14 10:14:32;;;;;;;2.83;2.63;;;18.10;99.50;;;;;;4994903;28;20179;-67
2022/10/14 10:17:07;;;;;;;3.63;2.60;;;18.10;99.40;;;;;;5011107;28;20246;-67
2022/10/14 10:19:35;;;;;;;2.65;2.40;;;18.10;99.40;;;;;;5011315;28;20199;-68
2022/10/14 10:22:25;;;;;;;2.55;2.33;;;18.10;99.40;;;;;;5011072;28;20199;-67
2022/10/14 10:25:00;;;;;;;2.78;2.50;;;18.10;99.50;;;;;;4991124;28;20265;-67
2022/10/14 10:27:35;;;;;;;2.50;2.30;;;18.10;99.70;;;;;;5027667;28;20211;-67
2022/10/14 10:30:28;;;;;;;3.50;2.38;;;18.10;99.90;;;;;;5011119;28;20187;-67
2022/10/14 10:33:22;;;;;;;2.97;2.45;;;18.10;99.90;;;;;;5010785;28;20188;-67
2022/10/14 10:36:16;;;;;;;2.55;2.33;;;18.10;99.80;;;;;;5027426;28;20191;-67
2022/10/14 10:39:02;;;;;;;3.33;2.80;;;18.10;99.70;;;;;;5027320;28;20215;-67
2022/10/14 10:41:57;;;;;;;2.70;2.50;;;18.10;99.80;;;;;;5010884;28;20199;-67
2022/10/14 10:44:58;;;;;;;2.70;2.50;;;18.10;99.80;;;;;;5010846;28;20224;-67
2022/10/14 10:47:51;;;;;;;2.97;2.55;;;18.10;99.90;;;;;;5010279;28;20221;-67
2022/10/14 10:50:30;;;;;;;2.65;2.30;;;18.10;99.90;;;;;;5009588;28;20242;-68
2022/10/14 10:53:36;;;;;;;3.05;2.35;;;18.10;99.90;;;;;;5026349;28;20184;-68
2022/10/14 10:56:56;;;;;;;2.63;2.42;;;18.10;99.80;;;;;;5027165;28;20200;-67
2022/10/14 10:59:37;;;;;;;2.40;2.20;;;18.10;99.90;;;;;;5031572;28;20219;-67
2022/10/14 11:02:44;;;;;;;2.60;2.40;;;18.10;99.90;;;;;;5031941;28;20241;-68
2022/10/14 11:05:44;;;;;;;2.78;2.55;;;18.10;99.90;;;;;;5015145;28;20234;-69
2022/10/14 11:12:14;;;;;;;3.53;2.72;;;18.10;99.80;;;;;;5016170;28;20569;-68
2022/10/14 11:15:02;;;;;;;2.75;2.55;;;18.10;99.90;;;;;;5014959;28;20229;-67
2022/10/14 11:17:59;;;;;;;2.70;2.13;;;18.10;99.90;;;;;;5011844;28;20290;-68
2022/10/14 11:20:41;;;;;;;2.30;2.10;;;18.10;99.90;;;;;;5015045;28;20172;-68
2022/10/14 11:23:47;;;;;;;2.58;2.10;;;18.10;99.90;;;;;;5015732;28;20184;-68
2022/10/14 11:26:54;;;;;;;2.33;2.03;;;18.10;99.90;;;;;;5031281;28;20206;-68
2022/10/14 11:30:05;;;;;;;4.25;2.30;;;18.10;99.90;;;;;;4996881;28;20219;-67
2022/10/14 11:33:29;;;;;;;2.10;2.00;;;18.10;99.90;;;;;;4998683;28;20188;-67
2022/10/14 11:36:23;;;;;;;2.95;2.13;;;18.10;99.90;;;;;;4970748;28;20231;-67
2022/10/14 11:39:20;;;;;;;2.40;2.20;;;18.10;99.90;;;;;;5013723;28;20200;-66
2022/10/14 11:42:12;;;;;;;3.50;2.03;;;18.10;99.90;;;;;;5014606;28;20187;-68
2022/10/14 11:44:42;;;;;;;2.30;2.10;;;18.10;99.90;;;;;;4998100;28;20247;-68
2022/10/14 11:47:24;;;;;;;2.33;2.10;;;18.10;99.90;;;;;;5030802;28;20180;-68
2022/10/14 11:50:13;;;;;;;3.38;2.22;;;18.10;99.90;;;;;;5015572;28;20176;-68
2022/10/14 11:52:57;;;;;;;2.30;2.08;;;18.10;99.90;;;;;;4994703;28;20257;-68
2022/10/14 11:55:28;;;;;;;2.15;2.00;;;18.10;99.90;;;;;;4978084;28;20196;-68
2022/10/14 11:58:03;;;;;;;2.03;1.92;;;18.10;99.90;;;;;;4995658;28;20208;-68
2022/10/14 12:00:50;;;;;;;2.88;2.30;;;18.10;99.90;;;;;;5014957;28;20275;-69
2022/10/14 12:03:39;;;;;;;2.40;2.20;;;18.10;99.90;;;;;;4997501;28;20203;-68
2022/10/14 12:06:25;;;;;;;2.13;2.03;;;18.10;99.90;;;;;;5015199;28;20188;-68
2022/10/14 12:09:37;;;;;;;3.08;2.17;;;18.10;99.90;;;;;;5009123;28;20223;-67
2022/10/14 12:12:10;;;;;;;3.00;2.28;;;18.10;99.90;;;;;;4985895;28;20212;-67
2022/10/14 12:14:50;;;;;;;2.20;2.05;;;18.10;99.90;;;;;;4994183;28;20204;-67
2022/10/14 12:17:29;;;;;;;1.80;1.70;;;18.10;99.90;;;;;;4997495;28;20177;-67
2022/10/14 12:19:57;;;;;;;2.40;2.08;;;18.10;99.90;;;;;;5010467;28;20184;-67
2022/10/14 12:22:30;;;;;;;2.35;2.00;;;18.20;99.90;;;;;;4977734;28;20189;-67
2022/10/14 12:25:04;;;;;;;2.28;1.77;;;18.20;99.90;;;;;;4995947;28;20710;-67
2022/10/14 12:27:30;;;;;;;2.22;1.90;;;18.20;99.90;;;;;;5024417;28;20588;-66
2022/10/14 12:29:57;;;;;;;1.80;1.70;;;18.20;99.90;;;;;;5029886;28;20184;-67
2022/10/14 12:32:29;;;;;;;2.00;1.90;;;18.10;99.90;;;;;;5013231;28;20180;-67
2022/10/14 12:35:02;;;;;;;2.28;2.08;;;18.20;99.90;;;;;;5013430;28;20276;-67
2022/10/14 12:37:33;;;;;;;2.75;2.40;;;18.20;99.90;;;;;;5013568;28;20215;-67
2022/10/14 12:40:05;;;;;;;2.63;2.25;;;18.10;99.90;;;;;;5029454;28;20203;-68
2022/10/14 12:42:50;;;;;;;2.10;2.00;;;18.20;99.90;;;;;;5029484;28;20184;-67
2022/10/14 12:45:25;;;;;;;2.30;2.10;;;18.10;99.90;;;;;;5013012;28;20196;-67
2022/10/14 12:48:19;;;;;;;2.53;2.00;;;18.20;99.90;;;;;;5029449;28;20246;-67
2022/10/14 12:50:48;;;;;;;2.47;1.80;;;18.10;99.90;;;;;;4991119;28;20246;-67
2022/10/14 12:53:23;;;;;;;1.80;1.70;;;18.20;99.90;;;;;;5013009;28;20184;-67
2022/10/14 12:55:56;;;;;;;3.67;2.30;;;18.20;99.90;;;;;;5014639;28;20172;-67
2022/10/14 12:58:37;;;;;;;2.30;2.10;;;18.20;99.90;;;;;;5012994;28;20243;-67
2022/10/14 13:01:20;;;;;;;2.25;2.05;;;18.20;99.90;;;;;;4996954;28;20195;-67
2022/10/14 13:03:59;;;;;;;2.10;1.88;;;18.20;99.90;;;;;;4996678;28;20192;-68
2022/10/14 13:06:42;;;;;;;3.00;1.88;;;18.10;99.90;;;;;;5029439;28;20199;-68
2022/10/14 13:09:10;;;;;;;2.25;1.65;;;18.20;99.90;;;;;;5014070;28;20211;-68
2022/10/14 13:11:38;;;;;;;1.80;1.70;;;18.10;99.90;;;;;;5029271;28;20266;-68
2022/10/14 13:15:02;;;;;;;1.98;1.80;;;18.10;99.90;;;;;;4996152;28;20245;-67
2022/10/14 13:17:45;;;;;;;1.85;1.73;;;18.20;99.90;;;;;;5012489;28;20686;-67
2022/10/14 13:20:33;;;;;;;2.00;1.67;;;18.20;99.90;;;;;;5023714;28;20267;-67
2022/10/14 13:23:29;;;;;;;2.30;2.00;;;18.20;99.90;;;;;;5029167;28;20188;-67
2022/10/14 13:26:39;;;;;;;2.58;1.90;;;18.10;99.90;;;;;;5013763;28;20178;-67
2022/10/14 13:29:51;;;;;;;3.45;2.00;;;18.10;99.90;;;;;;5005984;28;20220;-67
2022/10/14 13:32:29;;;;;;;1.92;1.70;;;18.10;99.90;;;;;;5029068;28;20176;-67